sensor_id;sensor_type;location;lat;lon;timestamp;pressure;altitude;pressure_sealevel;temperature;humidity
46886;BME280;32622;48.202;11.326;2023-09-12T00:01:57;1014.02;;;20.50;33.95
46886;BME280;32622;48.202;11.326;2023-09-12T00:03:59;1013.92;;;20.92;33.56
46886;BME280;32622;48.202;11.326;2023-09-12T00:06:03;1013.80;;;21.58;33.13
46886;BME280;32622;48.202;11.326;2023-09-12T00:08:05;1013.95;;;20.86;33.41
46886;BME280;32622;48.202;11.326;2023-09-12T00:10:08;1013.82;;;21.52;33.10
46886;BME280;32622;48.202;11.326;2023-09-12T00:12:14;1013.74;;;21.70;32.92
46886;BME280;32622;48.202;11.326;2023-09-12T00:14:17;1013.77;;;21.56;32.82
46886;BME280;32622;48.202;11.326;2023-09-12T00:16:19;1013.79;;;21.36;33.08
46886;BME280;32622;48.202;11.326;2023-09-12T00:18:21;1013.83;;;21.16;33.39
46886;BME280;32622;48.202;11.326;2023-09-12T00:20:24;1013.86;;;21.04;33.35
46886;BME280;32622;48.202;11.326;2023-09-12T00:22:26;1013.81;;;21.15;33.12
46886;BME280;32622;48.202;11.326;2023-09-12T00:24:28;1013.72;;;21.50;33.11
46886;BME280;32622;48.202;11.326;2023-09-12T00:26:30;1013.73;;;21.43;32.88
46886;BME280;32622;48.202;11.326;2023-09-12T00:28:32;1013.68;;;21.61;33.03
46886;BME280;32622;48.202;11.326;2023-09-12T00:30:34;1013.72;;;21.37;32.92
46886;BME280;32622;48.202;11.326;2023-09-12T00:32:36;1013.72;;;21.35;32.92
46886;BME280;32622;48.202;11.326;2023-09-12T00:34:38;1013.70;;;21.43;33.15
46886;BME280;32622;48.202;11.326;2023-09-12T00:36:41;1013.67;;;21.41;33.17
46886;BME280;32622;48.202;11.326;2023-09-12T00:38:43;1013.88;;;20.36;33.71
46886;BME280;32622;48.202;11.326;2023-09-12T00:40:45;1013.91;;;20.15;33.95
46886;BME280;32622;48.202;11.326;2023-09-12T00:42:47;1013.79;;;20.63;33.93
46886;BME280;32622;48.202;11.326;2023-09-12T00:44:49;1013.70;;;20.94;33.86
46886;BME280;32622;48.202;11.326;2023-09-12T00:46:53;1013.82;;;20.40;34.23
46886;BME280;32622;48.202;11.326;2023-09-12T00:48:57;1013.66;;;21.08;33.63
46886;BME280;32622;48.202;11.326;2023-09-12T00:51:01;1013.77;;;20.45;33.40
46886;BME280;32622;48.202;11.326;2023-09-12T00:53:04;1013.53;;;21.67;32.84
46886;BME280;32622;48.202;11.326;2023-09-12T00:55:07;1013.68;;;20.76;33.63
46886;BME280;32622;48.202;11.326;2023-09-12T00:57:09;1013.62;;;20.89;33.65
46886;BME280;32622;48.202;11.326;2023-09-12T00:59:11;1013.74;;;20.09;33.96
46886;BME280;32622;48.202;11.326;2023-09-12T01:01:15;1013.75;;;19.95;34.14
46886;BME280;32622;48.202;11.326;2023-09-12T01:03:17;1013.71;;;20.25;34.27
46886;BME280;32622;48.202;11.326;2023-09-12T01:05:20;1013.58;;;20.76;33.56
46886;BME280;32622;48.202;11.326;2023-09-12T01:07:24;1013.64;;;20.75;33.51
46886;BME280;32622;48.202;11.326;2023-09-12T01:09:26;1013.58;;;21.03;33.21
46886;BME280;32622;48.202;11.326;2023-09-12T01:11:28;1013.70;;;20.50;33.34
46886;BME280;32622;48.202;11.326;2023-09-12T01:13:30;1013.82;;;19.84;34.60
46886;BME280;32622;48.202;11.326;2023-09-12T01:15:32;1013.89;;;19.49;34.79
46886;BME280;32622;48.202;11.326;2023-09-12T01:17:34;1013.92;;;19.47;35.04
46886;BME280;32622;48.202;11.326;2023-09-12T01:19:36;1013.81;;;19.67;34.88
46886;BME280;32622;48.202;11.326;2023-09-12T01:21:49;1013.76;;;19.81;34.12
46886;BME280;32622;48.202;11.326;2023-09-12T01:24:04;1013.66;;;20.55;33.80
46886;BME280;32622;48.202;11.326;2023-09-12T01:26:17;1013.74;;;20.20;33.84
46886;BME280;32622;48.202;11.326;2023-09-12T01:28:30;1013.71;;;20.31;33.66
46886;BME280;32622;48.202;11.326;2023-09-12T01:30:33;1013.81;;;19.69;34.30
46886;BME280;32622;48.202;11.326;2023-09-12T01:32:37;1013.70;;;20.25;33.77
46886;BME280;32622;48.202;11.326;2023-09-12T01:34:40;1013.69;;;20.21;34.02
46886;BME280;32622;48.202;11.326;2023-09-12T01:36:43;1013.63;;;20.60;33.67
46886;BME280;32622;48.202;11.326;2023-09-12T01:38:45;1013.60;;;20.59;33.24
46886;BME280;32622;48.202;11.326;2023-09-12T01:40:49;1013.65;;;20.56;33.25
46886;BME280;32622;48.202;11.326;2023-09-12T01:42:52;1013.64;;;20.73;33.01
46886;BME280;32622;48.202;11.326;2023-09-12T01:44:56;1013.60;;;21.04;33.05
46886;BME280;32622;48.202;11.326;2023-09-12T01:47:03;1013.79;;;20.28;33.68
46886;BME280;32622;48.202;11.326;2023-09-12T01:49:08;1013.97;;;19.54;34.18
46886;BME280;32622;48.202;11.326;2023-09-12T01:51:11;1013.88;;;19.80;34.14
46886;BME280;32622;48.202;11.326;2023-09-12T01:53:13;1013.89;;;19.92;33.93
46886;BME280;32622;48.202;11.326;2023-09-12T01:55:16;1013.87;;;19.90;34.00
46886;BME280;32622;48.202;11.326;2023-09-12T01:57:20;1013.87;;;20.10;34.09
46886;BME280;32622;48.202;11.326;2023-09-12T01:59:22;1013.79;;;20.56;33.61
46886;BME280;32622;48.202;11.326;2023-09-12T02:01:24;1013.89;;;20.20;33.54
46886;BME280;32622;48.202;11.326;2023-09-12T02:03:26;1013.86;;;20.41;33.27
46886;BME280;32622;48.202;11.326;2023-09-12T02:05:29;1014.12;;;19.38;34.11
46886;BME280;32622;48.202;11.326;2023-09-12T02:07:33;1014.18;;;19.23;34.25
46886;BME280;32622;48.202;11.326;2023-09-12T02:09:36;1014.17;;;19.27;34.19
46886;BME280;32622;48.202;11.326;2023-09-12T02:11:38;1014.22;;;19.11;34.59
46886;BME280;32622;48.202;11.326;2023-09-12T02:13:40;1014.22;;;19.14;34.31
46886;BME280;32622;48.202;11.326;2023-09-12T02:15:42;1014.39;;;18.31;35.67
46886;BME280;32622;48.202;11.326;2023-09-12T02:17:44;1014.12;;;19.70;34.50
46886;BME280;32622;48.202;11.326;2023-09-12T02:19:47;1014.13;;;19.73;34.32
46886;BME280;32622;48.202;11.326;2023-09-12T02:21:49;1014.09;;;19.81;33.95
46886;BME280;32622;48.202;11.326;2023-09-12T02:23:51;1014.06;;;20.00;33.73
46886;BME280;32622;48.202;11.326;2023-09-12T02:25:53;1014.12;;;19.86;34.38
46886;BME280;32622;48.202;11.326;2023-09-12T02:27:55;1014.07;;;20.08;33.58
46886;BME280;32622;48.202;11.326;2023-09-12T02:29:58;1014.20;;;19.76;34.36
46886;BME280;32622;48.202;11.326;2023-09-12T02:32:00;1014.14;;;20.03;34.09
46886;BME280;32622;48.202;11.326;2023-09-12T02:34:02;1014.21;;;19.62;34.05
46886;BME280;32622;48.202;11.326;2023-09-12T02:36:05;1014.37;;;18.84;34.47
46886;BME280;32622;48.202;11.326;2023-09-12T02:38:07;1014.31;;;18.96;35.27
46886;BME280;32622;48.202;11.326;2023-09-12T02:40:10;1014.22;;;19.35;34.97
46886;BME280;32622;48.202;11.326;2023-09-12T02:42:12;1014.12;;;19.78;34.26
46886;BME280;32622;48.202;11.326;2023-09-12T02:44:15;1014.35;;;18.75;34.98
46886;BME280;32622;48.202;11.326;2023-09-12T02:46:17;1014.19;;;19.59;34.46
46886;BME280;32622;48.202;11.326;2023-09-12T02:48:19;1014.33;;;18.81;34.78
46886;BME280;32622;48.202;11.326;2023-09-12T02:50:21;1014.22;;;19.35;34.67
46886;BME280;32622;48.202;11.326;2023-09-12T02:52:23;1014.21;;;19.36;34.09
46886;BME280;32622;48.202;11.326;2023-09-12T02:54:25;1013.93;;;20.45;33.41
46886;BME280;32622;48.202;11.326;2023-09-12T02:56:27;1014.11;;;19.63;34.20
46886;BME280;32622;48.202;11.326;2023-09-12T02:58:29;1014.15;;;19.27;34.26
46886;BME280;32622;48.202;11.326;2023-09-12T03:00:31;1014.18;;;19.21;33.84
46886;BME280;32622;48.202;11.326;2023-09-12T03:02:34;1014.04;;;19.92;33.72
46886;BME280;32622;48.202;11.326;2023-09-12T03:04:36;1014.05;;;19.94;33.72
46886;BME280;32622;48.202;11.326;2023-09-12T03:06:38;1014.17;;;19.28;34.04
46886;BME280;32622;48.202;11.326;2023-09-12T03:08:40;1014.07;;;19.73;34.04
46886;BME280;32622;48.202;11.326;2023-09-12T03:10:42;1014.08;;;19.70;34.06
46886;BME280;32622;48.202;11.326;2023-09-12T03:12:45;1014.13;;;19.55;33.75
46886;BME280;32622;48.202;11.326;2023-09-12T03:14:47;1014.18;;;19.42;33.88
46886;BME280;32622;48.202;11.326;2023-09-12T03:16:49;1014.10;;;19.83;33.67
46886;BME280;32622;48.202;11.326;2023-09-12T03:18:51;1014.31;;;18.75;34.49
46886;BME280;32622;48.202;11.326;2023-09-12T03:20:53;1014.22;;;19.23;34.54
46886;BME280;32622;48.202;11.326;2023-09-12T03:22:55;1014.16;;;19.52;34.22
46886;BME280;32622;48.202;11.326;2023-09-12T03:24:57;1014.19;;;19.44;33.64
46886;BME280;32622;48.202;11.326;2023-09-12T03:26:59;1014.17;;;19.75;33.82
46886;BME280;32622;48.202;11.326;2023-09-12T03:29:02;1014.20;;;19.59;33.74
46886;BME280;32622;48.202;11.326;2023-09-12T03:31:07;1014.20;;;19.50;34.24
46886;BME280;32622;48.202;11.326;2023-09-12T03:33:09;1014.30;;;18.87;34.41
46886;BME280;32622;48.202;11.326;2023-09-12T03:35:11;1014.33;;;18.70;34.66
46886;BME280;32622;48.202;11.326;2023-09-12T03:37:14;1014.20;;;19.34;34.04
46886;BME280;32622;48.202;11.326;2023-09-12T03:39:16;1014.18;;;19.44;33.93
46886;BME280;32622;48.202;11.326;2023-09-12T03:41:18;1014.07;;;19.91;33.51
46886;BME280;32622;48.202;11.326;2023-09-12T03:43:20;1013.94;;;20.55;33.22
46886;BME280;32622;48.202;11.326;2023-09-12T03:45:22;1014.03;;;20.08;33.35
46886;BME280;32622;48.202;11.326;2023-09-12T03:47:24;1014.16;;;19.59;33.84
46886;BME280;32622;48.202;11.326;2023-09-12T03:49:27;1014.21;;;19.36;33.88
46886;BME280;32622;48.202;11.326;2023-09-12T03:51:29;1014.27;;;18.96;35.02
46886;BME280;32622;48.202;11.326;2023-09-12T03:53:31;1014.16;;;19.43;34.34
46886;BME280;32622;48.202;11.326;2023-09-12T03:55:33;1014.28;;;18.92;34.72
46886;BME280;32622;48.202;11.326;2023-09-12T03:57:36;1014.32;;;18.81;34.78
46886;BME280;32622;48.202;11.326;2023-09-12T03:59:38;1014.41;;;18.46;35.18
46886;BME280;32622;48.202;11.326;2023-09-12T04:01:40;1014.40;;;18.39;35.12
46886;BME280;32622;48.202;11.326;2023-09-12T04:03:42;1014.32;;;18.70;35.01
46886;BME280;32622;48.202;11.326;2023-09-12T04:05:46;1014.17;;;19.43;34.42
46886;BME280;32622;48.202;11.326;2023-09-12T04:07:48;1014.22;;;19.34;34.13
46886;BME280;32622;48.202;11.326;2023-09-12T04:09:50;1014.25;;;19.31;34.23
46886;BME280;32622;48.202;11.326;2023-09-12T04:11:52;1014.35;;;18.86;34.84
46886;BME280;32622;48.202;11.326;2023-09-12T04:13:54;1014.34;;;18.77;34.89
46886;BME280;32622;48.202;11.326;2023-09-12T04:15:57;1014.31;;;18.94;34.82
46886;BME280;32622;48.202;11.326;2023-09-12T04:17:59;1014.34;;;18.93;34.65
46886;BME280;32622;48.202;11.326;2023-09-12T04:20:02;1014.38;;;18.65;34.92
46886;BME280;32622;48.202;11.326;2023-09-12T04:22:04;1014.45;;;18.40;35.39
46886;BME280;32622;48.202;11.326;2023-09-12T04:24:07;1014.28;;;19.20;35.18
46886;BME280;32622;48.202;11.326;2023-09-12T04:26:09;1014.49;;;18.20;35.43
46886;BME280;32622;48.202;11.326;2023-09-12T04:28:11;1014.45;;;18.49;35.23
46886;BME280;32622;48.202;11.326;2023-09-12T04:30:14;1014.43;;;18.60;35.31
46886;BME280;32622;48.202;11.326;2023-09-12T04:32:16;1014.54;;;17.94;35.51
46886;BME280;32622;48.202;11.326;2023-09-12T04:34:18;1014.46;;;18.42;35.08
46886;BME280;32622;48.202;11.326;2023-09-12T04:36:20;1014.48;;;18.37;35.18
46886;BME280;32622;48.202;11.326;2023-09-12T04:38:22;1014.52;;;17.98;35.44
46886;BME280;32622;48.202;11.326;2023-09-12T04:40:25;1014.47;;;18.35;35.06
46886;BME280;32622;48.202;11.326;2023-09-12T04:42:27;1014.30;;;19.04;34.88
46886;BME280;32622;48.202;11.326;2023-09-12T04:44:29;1014.39;;;18.31;35.22
46886;BME280;32622;48.202;11.326;2023-09-12T04:46:31;1014.40;;;18.25;35.34
46886;BME280;32622;48.202;11.326;2023-09-12T04:48:33;1014.54;;;17.60;35.79
46886;BME280;32622;48.202;11.326;2023-09-12T04:50:40;1014.35;;;18.46;35.25
46886;BME280;32622;48.202;11.326;2023-09-12T04:52:42;1014.35;;;18.64;35.04
46886;BME280;32622;48.202;11.326;2023-09-12T04:54:46;1014.49;;;18.09;35.94
46886;BME280;32622;48.202;11.326;2023-09-12T04:56:48;1014.50;;;18.13;36.13
46886;BME280;32622;48.202;11.326;2023-09-12T04:58:50;1014.47;;;18.28;35.91
46886;BME280;32622;48.202;11.326;2023-09-12T05:00:53;1014.32;;;18.99;35.29
46886;BME280;32622;48.202;11.326;2023-09-12T05:02:55;1014.34;;;19.03;35.06
46886;BME280;32622;48.202;11.326;2023-09-12T05:04:58;1014.38;;;18.77;35.48
46886;BME280;32622;48.202;11.326;2023-09-12T05:07:00;1014.50;;;18.21;35.40
46886;BME280;32622;48.202;11.326;2023-09-12T05:09:02;1014.38;;;18.83;35.29
46886;BME280;32622;48.202;11.326;2023-09-12T05:11:04;1014.42;;;18.47;35.70
46886;BME280;32622;48.202;11.326;2023-09-12T05:13:06;1014.50;;;18.30;35.28
46886;BME280;32622;48.202;11.326;2023-09-12T05:15:09;1014.44;;;18.54;35.20
46886;BME280;32622;48.202;11.326;2023-09-12T05:17:11;1014.45;;;18.62;34.75
46886;BME280;32622;48.202;11.326;2023-09-12T05:19:13;1014.49;;;18.42;35.47
46886;BME280;32622;48.202;11.326;2023-09-12T05:21:15;1014.33;;;19.45;35.04
46886;BME280;32622;48.202;11.326;2023-09-12T05:23:18;1014.35;;;19.49;34.75
46886;BME280;32622;48.202;11.326;2023-09-12T05:25:20;1014.36;;;19.55;34.28
46886;BME280;32622;48.202;11.326;2023-09-12T05:27:22;1014.26;;;20.07;33.69
46886;BME280;32622;48.202;11.326;2023-09-12T05:29:24;1014.27;;;20.05;33.32
46886;BME280;32622;48.202;11.326;2023-09-12T05:31:26;1014.19;;;20.52;33.13
46886;BME280;32622;48.202;11.326;2023-09-12T05:33:28;1014.18;;;20.58;32.68
46886;BME280;32622;48.202;11.326;2023-09-12T05:35:30;1014.18;;;20.54;32.12
46886;BME280;32622;48.202;11.326;2023-09-12T05:37:33;1014.52;;;19.20;33.54
46886;BME280;32622;48.202;11.326;2023-09-12T05:39:35;1014.41;;;19.54;33.28
46886;BME280;32622;48.202;11.326;2023-09-12T05:41:37;1014.26;;;20.16;32.59
46886;BME280;32622;48.202;11.326;2023-09-12T05:43:39;1014.28;;;20.29;32.42
46886;BME280;32622;48.202;11.326;2023-09-12T05:45:41;1014.26;;;20.39;32.55
46886;BME280;32622;48.202;11.326;2023-09-12T05:47:43;1014.34;;;19.97;32.64
46886;BME280;32622;48.202;11.326;2023-09-12T05:49:45;1014.11;;;20.94;31.88
46886;BME280;32622;48.202;11.326;2023-09-12T05:51:47;1013.97;;;21.76;31.33
46886;BME280;32622;48.202;11.326;2023-09-12T05:53:49;1013.92;;;22.15;30.72
46886;BME280;32622;48.202;11.326;2023-09-12T05:55:52;1013.95;;;22.01;31.19
46886;BME280;32622;48.202;11.326;2023-09-12T05:57:54;1013.95;;;22.10;30.65
46886;BME280;32622;48.202;11.326;2023-09-12T05:59:56;1013.87;;;22.25;30.57
46886;BME280;32622;48.202;11.326;2023-09-12T06:01:58;1013.80;;;22.56;30.24
46886;BME280;32622;48.202;11.326;2023-09-12T06:04:00;1013.84;;;22.45;29.94
46886;BME280;32622;48.202;11.326;2023-09-12T06:06:03;1013.79;;;22.66;29.62
46886;BME280;32622;48.202;11.326;2023-09-12T06:08:05;1013.63;;;23.62;29.08
46886;BME280;32622;48.202;11.326;2023-09-12T06:10:08;1013.67;;;23.60;29.16
46886;BME280;32622;48.202;11.326;2023-09-12T06:12:11;1013.68;;;23.60;28.67
46886;BME280;32622;48.202;11.326;2023-09-12T06:14:13;1013.64;;;23.85;29.04
46886;BME280;32622;48.202;11.326;2023-09-12T06:16:15;1013.51;;;24.54;28.32
46886;BME280;32622;48.202;11.326;2023-09-12T06:18:17;1013.59;;;24.18;28.42
46886;BME280;32622;48.202;11.326;2023-09-12T06:20:19;1013.51;;;24.48;27.92
46886;BME280;32622;48.202;11.326;2023-09-12T06:22:21;1013.41;;;24.62;27.95
46886;BME280;32622;48.202;11.326;2023-09-12T06:24:24;1013.36;;;24.98;27.73
46886;BME280;32622;48.202;11.326;2023-09-12T06:26:26;1013.29;;;25.17;26.86
46886;BME280;32622;48.202;11.326;2023-09-12T06:28:29;1013.26;;;25.51;26.81
46886;BME280;32622;48.202;11.326;2023-09-12T06:30:32;1013.26;;;25.53;26.79
46886;BME280;32622;48.202;11.326;2023-09-12T06:32:34;1013.15;;;26.12;26.69
46886;BME280;32622;48.202;11.326;2023-09-12T06:34:36;1013.13;;;26.32;26.59
46886;BME280;32622;48.202;11.326;2023-09-12T06:36:38;1013.09;;;26.43;26.26
46886;BME280;32622;48.202;11.326;2023-09-12T06:38:40;1013.14;;;26.22;26.70
46886;BME280;32622;48.202;11.326;2023-09-12T06:40:43;1013.03;;;26.68;26.41
46886;BME280;32622;48.202;11.326;2023-09-12T06:42:45;1013.23;;;25.63;27.04
46886;BME280;32622;48.202;11.326;2023-09-12T06:44:47;1013.08;;;26.31;26.41
46886;BME280;32622;48.202;11.326;2023-09-12T06:46:49;1012.99;;;26.81;25.85
46886;BME280;32622;48.202;11.326;2023-09-12T06:48:51;1013.05;;;26.54;25.58
46886;BME280;32622;48.202;11.326;2023-09-12T06:50:54;1013.00;;;26.70;25.40
46886;BME280;32622;48.202;11.326;2023-09-12T06:52:56;1013.05;;;26.40;26.15
46886;BME280;32622;48.202;11.326;2023-09-12T06:54:59;1013.16;;;25.92;26.33
46886;BME280;32622;48.202;11.326;2023-09-12T06:57:01;1013.01;;;26.92;25.48
46886;BME280;32622;48.202;11.326;2023-09-12T06:59:03;1013.05;;;26.76;25.87
46886;BME280;32622;48.202;11.326;2023-09-12T07:01:06;1013.08;;;26.54;25.43
46886;BME280;32622;48.202;11.326;2023-09-12T07:03:08;1012.87;;;27.84;24.76
46886;BME280;32622;48.202;11.326;2023-09-12T07:05:11;1012.90;;;27.76;24.44
46886;BME280;32622;48.202;11.326;2023-09-12T07:07:13;1012.94;;;27.60;24.59
46886;BME280;32622;48.202;11.326;2023-09-12T07:09:15;1012.87;;;27.82;24.69
46886;BME280;32622;48.202;11.326;2023-09-12T07:11:17;1012.90;;;27.75;24.35
46886;BME280;32622;48.202;11.326;2023-09-12T07:13:19;1012.74;;;28.76;24.05
46886;BME280;32622;48.202;11.326;2023-09-12T07:15:21;1012.72;;;28.78;23.88
46886;BME280;32622;48.202;11.326;2023-09-12T07:17:23;1012.74;;;28.76;23.59
46886;BME280;32622;48.202;11.326;2023-09-12T07:19:26;1012.70;;;29.10;23.32
46886;BME280;32622;48.202;11.326;2023-09-12T07:21:28;1012.74;;;28.87;23.54
46886;BME280;32622;48.202;11.326;2023-09-12T07:23:30;1012.72;;;29.03;22.82
46886;BME280;32622;48.202;11.326;2023-09-12T07:25:37;1012.52;;;29.82;22.80
46886;BME280;32622;48.202;11.326;2023-09-12T07:27:39;1012.57;;;29.73;23.14
46886;BME280;32622;48.202;11.326;2023-09-12T07:29:42;1012.58;;;29.74;22.42
46886;BME280;32622;48.202;11.326;2023-09-12T07:31:44;1012.61;;;29.46;22.28
46886;BME280;32622;48.202;11.326;2023-09-12T07:33:46;1012.57;;;29.82;22.80
46886;BME280;32622;48.202;11.326;2023-09-12T07:35:48;1012.40;;;30.60;22.37
46886;BME280;32622;48.202;11.326;2023-09-12T07:37:51;1012.44;;;30.42;22.23
46886;BME280;32622;48.202;11.326;2023-09-12T07:39:53;1012.44;;;30.30;22.41
46886;BME280;32622;48.202;11.326;2023-09-12T07:41:55;1012.31;;;30.81;22.02
46886;BME280;32622;48.202;11.326;2023-09-12T07:43:57;1012.47;;;30.01;22.43
46886;BME280;32622;48.202;11.326;2023-09-12T07:46:00;1012.34;;;30.41;22.83
46886;BME280;32622;48.202;11.326;2023-09-12T07:48:02;1012.24;;;30.89;22.46
46886;BME280;32622;48.202;11.326;2023-09-12T07:50:05;1012.40;;;30.23;22.83
46886;BME280;32622;48.202;11.326;2023-09-12T07:52:07;1012.32;;;30.48;22.50
46886;BME280;32622;48.202;11.326;2023-09-12T07:54:09;1012.37;;;30.55;22.93
46886;BME280;32622;48.202;11.326;2023-09-12T07:56:12;1012.42;;;30.41;22.32
46886;BME280;32622;48.202;11.326;2023-09-12T07:58:14;1012.43;;;30.39;22.58
46886;BME280;32622;48.202;11.326;2023-09-12T08:00:17;1012.45;;;30.42;22.75
46886;BME280;32622;48.202;11.326;2023-09-12T08:02:19;1012.51;;;30.15;22.61
46886;BME280;32622;48.202;11.326;2023-09-12T08:04:21;1012.58;;;29.89;22.86
46886;BME280;32622;48.202;11.326;2023-09-12T08:06:23;1012.37;;;30.80;22.56
46886;BME280;32622;48.202;11.326;2023-09-12T08:08:25;1012.54;;;30.20;23.12
46886;BME280;32622;48.202;11.326;2023-09-12T08:10:28;1012.51;;;30.25;23.44
46886;BME280;32622;48.202;11.326;2023-09-12T08:12:30;1012.51;;;30.46;23.54
46886;BME280;32622;48.202;11.326;2023-09-12T08:14:32;1012.45;;;30.58;22.82
46886;BME280;32622;48.202;11.326;2023-09-12T08:16:34;1012.63;;;29.88;23.45
46886;BME280;32622;48.202;11.326;2023-09-12T08:18:36;1012.55;;;30.14;23.39
46886;BME280;32622;48.202;11.326;2023-09-12T08:20:38;1012.61;;;29.72;23.25
46886;BME280;32622;48.202;11.326;2023-09-12T08:22:41;1012.83;;;28.74;23.95
46886;BME280;32622;48.202;11.326;2023-09-12T08:24:43;1012.69;;;29.42;23.85
46886;BME280;32622;48.202;11.326;2023-09-12T08:26:45;1012.59;;;30.00;23.43
46886;BME280;32622;48.202;11.326;2023-09-12T08:28:47;1012.64;;;29.81;23.93
46886;BME280;32622;48.202;11.326;2023-09-12T08:30:49;1012.70;;;29.48;24.44
46886;BME280;32622;48.202;11.326;2023-09-12T08:32:51;1012.73;;;29.37;23.93
46886;BME280;32622;48.202;11.326;2023-09-12T08:34:54;1012.66;;;29.68;23.38
46886;BME280;32622;48.202;11.326;2023-09-12T08:36:56;1012.65;;;29.65;23.85
46886;BME280;32622;48.202;11.326;2023-09-12T08:38:58;1012.55;;;30.06;23.68
46886;BME280;32622;48.202;11.326;2023-09-12T08:41:00;1012.50;;;30.25;23.49
46886;BME280;32622;48.202;11.326;2023-09-12T08:43:03;1012.49;;;30.24;23.24
46886;BME280;32622;48.202;11.326;2023-09-12T08:45:06;1012.44;;;30.57;23.04
46886;BME280;32622;48.202;11.326;2023-09-12T08:47:11;1012.39;;;30.66;23.23
46886;BME280;32622;48.202;11.326;2023-09-12T08:49:14;1012.27;;;31.28;22.88
46886;BME280;32622;48.202;11.326;2023-09-12T08:51:16;1012.24;;;31.41;22.97
46886;BME280;32622;48.202;11.326;2023-09-12T08:53:18;1012.17;;;31.76;22.39
46886;BME280;32622;48.202;11.326;2023-09-12T08:55:20;1012.20;;;31.53;22.07
46886;BME280;32622;48.202;11.326;2023-09-12T08:57:23;1012.10;;;31.97;21.84
46886;BME280;32622;48.202;11.326;2023-09-12T08:59:25;1012.04;;;32.14;21.54
46886;BME280;32622;48.202;11.326;2023-09-12T09:01:30;1011.91;;;32.58;21.23
46886;BME280;32622;48.202;11.326;2023-09-12T09:03:33;1011.97;;;32.25;21.36
46886;BME280;32622;48.202;11.326;2023-09-12T09:05:36;1011.77;;;33.16;20.24
46886;BME280;32622;48.202;11.326;2023-09-12T09:07:40;1011.85;;;32.63;21.01
46886;BME280;32622;48.202;11.326;2023-09-12T09:09:43;1011.85;;;32.52;20.23
46886;BME280;32622;48.202;11.326;2023-09-12T09:11:45;1011.82;;;32.64;21.93
46886;BME280;32622;48.202;11.326;2023-09-12T09:13:47;1011.96;;;31.94;21.64
46886;BME280;32622;48.202;11.326;2023-09-12T09:15:49;1011.80;;;32.55;20.31
46886;BME280;32622;48.202;11.326;2023-09-12T09:18:10;1011.71;;;33.06;19.91
46886;BME280;32622;48.202;11.326;2023-09-12T09:20:22;1011.58;;;33.72;19.97
46886;BME280;32622;48.202;11.326;2023-09-12T09:22:24;1011.63;;;33.32;19.30
46886;BME280;32622;48.202;11.326;2023-09-12T09:24:26;1011.51;;;34.14;19.92
46886;BME280;32622;48.202;11.326;2023-09-12T09:26:42;1011.61;;;33.43;19.83
46886;BME280;32622;48.202;11.326;2023-09-12T09:28:44;1011.53;;;33.98;19.90
46886;BME280;32622;48.202;11.326;2023-09-12T09:30:47;1011.41;;;34.46;19.01
46886;BME280;32622;48.202;11.326;2023-09-12T09:32:54;1011.41;;;34.31;18.93
46886;BME280;32622;48.202;11.326;2023-09-12T09:34:57;1011.40;;;34.27;18.00
46886;BME280;32622;48.202;11.326;2023-09-12T09:37:03;1011.46;;;34.00;18.33
46886;BME280;32622;48.202;11.326;2023-09-12T09:39:06;1011.41;;;34.36;18.89
46886;BME280;32622;48.202;11.326;2023-09-12T09:41:09;1011.40;;;34.34;18.67
46886;BME280;32622;48.202;11.326;2023-09-12T09:43:11;1011.59;;;33.39;19.11
46886;BME280;32622;48.202;11.326;2023-09-12T09:45:13;1011.56;;;33.42;18.39
46886;BME280;32622;48.202;11.326;2023-09-12T09:47:18;1011.60;;;33.25;18.81
46886;BME280;32622;48.202;11.326;2023-09-12T09:49:20;1011.52;;;33.67;19.22
46886;BME280;32622;48.202;11.326;2023-09-12T09:51:23;1011.55;;;33.44;19.41
46886;BME280;32622;48.202;11.326;2023-09-12T09:53:26;1011.49;;;33.58;19.85
46886;BME280;32622;48.202;11.326;2023-09-12T09:55:28;1011.51;;;33.63;19.12
46886;BME280;32622;48.202;11.326;2023-09-12T09:57:36;1011.49;;;33.71;19.26
46886;BME280;32622;48.202;11.326;2023-09-12T09:59:38;1011.46;;;33.90;19.09
46886;BME280;32622;48.202;11.326;2023-09-12T10:01:41;1011.54;;;33.55;19.16
46886;BME280;32622;48.202;11.326;2023-09-12T10:03:45;1011.53;;;33.48;19.55
46886;BME280;32622;48.202;11.326;2023-09-12T10:05:50;1011.53;;;33.42;19.37
46886;BME280;32622;48.202;11.326;2023-09-12T10:07:53;1011.53;;;33.22;18.92
46886;BME280;32622;48.202;11.326;2023-09-12T10:09:58;1011.45;;;33.63;19.20
46886;BME280;32622;48.202;11.326;2023-09-12T10:12:03;1011.43;;;33.75;19.24
46886;BME280;32622;48.202;11.326;2023-09-12T10:14:07;1011.46;;;33.29;19.24
46886;BME280;32622;48.202;11.326;2023-09-12T10:16:09;1011.46;;;33.46;19.20
46886;BME280;32622;48.202;11.326;2023-09-12T10:18:22;1011.45;;;33.37;19.41
46886;BME280;32622;48.202;11.326;2023-09-12T10:20:37;1011.49;;;32.86;18.88
46886;BME280;32622;48.202;11.326;2023-09-12T10:22:46;1011.37;;;33.27;18.79
46886;BME280;32622;48.202;11.326;2023-09-12T10:24:53;1011.46;;;32.46;19.23
46886;BME280;32622;48.202;11.326;2023-09-12T10:26:56;1011.36;;;32.93;18.64
46886;BME280;32622;48.202;11.326;2023-09-12T10:28:59;1011.46;;;32.52;19.30
46886;BME280;32622;48.202;11.326;2023-09-12T10:31:03;1011.39;;;32.76;18.82
46886;BME280;32622;48.202;11.326;2023-09-12T10:33:07;1011.28;;;33.33;19.07
46886;BME280;32622;48.202;11.326;2023-09-12T10:35:10;1011.27;;;33.43;18.49
46886;BME280;32622;48.202;11.326;2023-09-12T10:37:14;1011.33;;;33.41;19.22
46886;BME280;32622;48.202;11.326;2023-09-12T10:39:19;1011.32;;;33.22;18.85
46886;BME280;32622;48.202;11.326;2023-09-12T10:41:24;1011.43;;;32.64;18.49
46886;BME280;32622;48.202;11.326;2023-09-12T10:43:28;1011.40;;;32.74;18.75
46886;BME280;32622;48.202;11.326;2023-09-12T10:45:31;1011.32;;;32.80;18.47
46886;BME280;32622;48.202;11.326;2023-09-12T10:47:34;1011.25;;;33.16;18.28
46886;BME280;32622;48.202;11.326;2023-09-12T10:49:37;1011.18;;;33.54;18.17
46886;BME280;32622;48.202;11.326;2023-09-12T10:51:40;1011.18;;;33.44;18.22